sensor_id;sensor_type;location;lat;lon;timestamp;temperature;humidity
40534;DHT22;26233;51.894;10.192;2023-02-12T00:00:07;10.20;54.00
40534;DHT22;26233;51.894;10.192;2023-02-12T00:02:34;10.30;54.20
40534;DHT22;26233;51.894;10.192;2023-02-12T00:05:03;10.30;54.20
40534;DHT22;26233;51.894;10.192;2023-02-12T00:07:31;10.20;54.10
40534;DHT22;26233;51.894;10.192;2023-02-12T00:09:58;10.30;54.20
40534;DHT22;26233;51.894;10.192;2023-02-12T00:12:25;10.30;54.20
40534;DHT22;26233;51.894;10.192;2023-02-12T00:14:52;10.30;54.20
40534;DHT22;26233;51.894;10.192;2023-02-12T00:17:19;10.30;54.20
40534;DHT22;26233;51.894;10.192;2023-02-12T00:19:46;10.30;54.30
40534;DHT22;26233;51.894;10.192;2023-02-12T00:22:14;10.30;54.30
40534;DHT22;26233;51.894;10.192;2023-02-12T00:24:41;10.30;54.30
40534;DHT22;26233;51.894;10.192;2023-02-12T00:27:08;10.30;54.30
40534;DHT22;26233;51.894;10.192;2023-02-12T00:29:36;10.30;54.30
40534;DHT22;26233;51.894;10.192;2023-02-12T00:32:03;10.30;54.30
40534;DHT22;26233;51.894;10.192;2023-02-12T00:34:30;10.40;54.40
40534;DHT22;26233;51.894;10.192;2023-02-12T00:36:57;10.40;54.40
40534;DHT22;26233;51.894;10.192;2023-02-12T00:39:26;10.30;54.20
40534;DHT22;26233;51.894;10.192;2023-02-12T00:41:53;10.40;54.30
40534;DHT22;26233;51.894;10.192;2023-02-12T00:44:20;10.30;54.20
40534;DHT22;26233;51.894;10.192;2023-02-12T00:46:47;10.30;54.30
40534;DHT22;26233;51.894;10.192;2023-02-12T00:49:14;10.30;54.30
40534;DHT22;26233;51.894;10.192;2023-02-12T00:51:43;10.30;54.30
40534;DHT22;26233;51.894;10.192;2023-02-12T00:54:10;10.30;54.30
40534;DHT22;26233;51.894;10.192;2023-02-12T00:56:38;10.30;54.40
40534;DHT22;26233;51.894;10.192;2023-02-12T00:59:05;10.30;54.40
40534;DHT22;26233;51.894;10.192;2023-02-12T01:01:33;10.30;54.40
40534;DHT22;26233;51.894;10.192;2023-02-12T01:04:00;10.30;54.40
40534;DHT22;26233;51.894;10.192;2023-02-12T01:06:27;10.30;54.30
40534;DHT22;26233;51.894;10.192;2023-02-12T01:08:54;10.30;54.30
40534;DHT22;26233;51.894;10.192;2023-02-12T01:11:21;10.30;54.30
40534;DHT22;26233;51.894;10.192;2023-02-12T01:13:49;10.30;54.30
40534;DHT22;26233;51.894;10.192;2023-02-12T01:16:17;10.40;54.40
40534;DHT22;26233;51.894;10.192;2023-02-12T01:18:46;10.30;54.40
40534;DHT22;26233;51.894;10.192;2023-02-12T01:21:15;10.40;54.50
40534;DHT22;26233;51.894;10.192;2023-02-12T01:23:44;10.30;54.40
40534;DHT22;26233;51.894;10.192;2023-02-12T01:26:12;10.30;54.40
40534;DHT22;26233;51.894;10.192;2023-02-12T01:28:42;10.30;54.40
40534;DHT22;26233;51.894;10.192;2023-02-12T01:31:13;10.30;55.00
40534;DHT22;26233;51.894;10.192;2023-02-12T01:33:41;10.30;54.40
40534;DHT22;26233;51.894;10.192;2023-02-12T01:36:08;10.30;54.40
40534;DHT22;26233;51.894;10.192;2023-02-12T01:38:36;10.30;54.50
40534;DHT22;26233;51.894;10.192;2023-02-12T01:41:06;10.30;54.50
40534;DHT22;26233;51.894;10.192;2023-02-12T01:43:35;10.30;54.50
40534;DHT22;26233;51.894;10.192;2023-02-12T01:46:04;10.30;54.50
40534;DHT22;26233;51.894;10.192;2023-02-12T01:48:36;10.30;54.50
40534;DHT22;26233;51.894;10.192;2023-02-12T01:51:06;10.30;54.60
40534;DHT22;26233;51.894;10.192;2023-02-12T01:53:38;10.30;54.50
40534;DHT22;26233;51.894;10.192;2023-02-12T01:56:08;10.30;54.50
40534;DHT22;26233;51.894;10.192;2023-02-12T01:58:39;10.40;54.60
40534;DHT22;26233;51.894;10.192;2023-02-12T02:01:12;10.40;54.60
40534;DHT22;26233;51.894;10.192;2023-02-12T02:03:44;10.40;54.60
40534;DHT22;26233;51.894;10.192;2023-02-12T02:06:15;10.40;54.60
40534;DHT22;26233;51.894;10.192;2023-02-12T02:08:45;10.40;54.60
40534;DHT22;26233;51.894;10.192;2023-02-12T02:11:12;10.40;54.50
40534;DHT22;26233;51.894;10.192;2023-02-12T02:13:57;10.40;54.50
40534;DHT22;26233;51.894;10.192;2023-02-12T02:16:49;10.40;54.50
40534;DHT22;26233;51.894;10.192;2023-02-12T02:19:32;10.40;54.50
40534;DHT22;26233;51.894;10.192;2023-02-12T02:22:26;10.40;55.10
40534;DHT22;26233;51.894;10.192;2023-02-12T02:25:23;10.30;55.10
40534;DHT22;26233;51.894;10.192;2023-02-12T02:28:13;10.30;54.50
40534;DHT22;26233;51.894;10.192;2023-02-12T02:30:55;10.30;54.50
40534;DHT22;26233;51.894;10.192;2023-02-12T02:33:30;10.30;54.50
40534;DHT22;26233;51.894;10.192;2023-02-12T02:36:13;10.30;54.50
40534;DHT22;26233;51.894;10.192;2023-02-12T02:38:49;10.30;54.50
40534;DHT22;26233;51.894;10.192;2023-02-12T02:41:25;10.30;54.50
40534;DHT22;26233;51.894;10.192;2023-02-12T02:43:57;10.30;54.50
40534;DHT22;26233;51.894;10.192;2023-02-12T02:46:32;10.30;54.50
40534;DHT22;26233;51.894;10.192;2023-02-12T02:49:03;10.30;54.60
40534;DHT22;26233;51.894;10.192;2023-02-12T02:51:35;10.30;54.60
40534;DHT22;26233;51.894;10.192;2023-02-12T02:54:06;10.30;54.60
40534;DHT22;26233;51.894;10.192;2023-02-12T02:56:38;10.30;54.60
40534;DHT22;26233;51.894;10.192;2023-02-12T02:59:10;10.30;54.60
40534;DHT22;26233;51.894;10.192;2023-02-12T03:01:42;10.30;54.70
40534;DHT22;26233;51.894;10.192;2023-02-12T03:04:14;10.30;54.70
40534;DHT22;26233;51.894;10.192;2023-02-12T03:06:56;10.30;54.70
40534;DHT22;26233;51.894;10.192;2023-02-12T03:09:28;10.30;54.70
40534;DHT22;26233;51.894;10.192;2023-02-12T03:12:02;10.30;54.60
40534;DHT22;26233;51.894;10.192;2023-02-12T03:14:35;10.30;54.60
40534;DHT22;26233;51.894;10.192;2023-02-12T03:17:08;10.30;54.50
40534;DHT22;26233;51.894;10.192;2023-02-12T03:19:41;10.30;54.60
40534;DHT22;26233;51.894;10.192;2023-02-12T03:22:14;10.30;54.60
40534;DHT22;26233;51.894;10.192;2023-02-12T03:24:46;10.30;54.60
40534;DHT22;26233;51.894;10.192;2023-02-12T03:27:20;10.20;54.50
40534;DHT22;26233;51.894;10.192;2023-02-12T03:29:51;10.30;54.70
40534;DHT22;26233;51.894;10.192;2023-02-12T03:32:28;10.20;54.60
40534;DHT22;26233;51.894;10.192;2023-02-12T03:35:08;10.20;54.60
40534;DHT22;26233;51.894;10.192;2023-02-12T03:37:37;10.20;54.60
40534;DHT22;26233;51.894;10.192;2023-02-12T03:40:13;10.20;54.60
40534;DHT22;26233;51.894;10.192;2023-02-12T03:42:47;10.20;54.70
40534;DHT22;26233;51.894;10.192;2023-02-12T03:45:27;10.20;54.70
40534;DHT22;26233;51.894;10.192;2023-02-12T03:48:07;10.20;54.70
40534;DHT22;26233;51.894;10.192;2023-02-12T03:50:41;10.20;54.70
40534;DHT22;26233;51.894;10.192;2023-02-12T03:53:10;10.20;54.70
40534;DHT22;26233;51.894;10.192;2023-02-12T03:55:41;10.20;54.70
40534;DHT22;26233;51.894;10.192;2023-02-12T03:58:13;10.30;54.80
40534;DHT22;26233;51.894;10.192;2023-02-12T04:00:43;10.30;54.80
40534;DHT22;26233;51.894;10.192;2023-02-12T04:03:12;10.30;54.80
40534;DHT22;26233;51.894;10.192;2023-02-12T04:05:39;10.20;54.70
40534;DHT22;26233;51.894;10.192;2023-02-12T04:08:08;10.20;54.70
40534;DHT22;26233;51.894;10.192;2023-02-12T04:10:42;10.20;54.70
40534;DHT22;26233;51.894;10.192;2023-02-12T04:13:20;10.20;54.70
40534;DHT22;26233;51.894;10.192;2023-02-12T04:16:00;10.20;54.70
40534;DHT22;26233;51.894;10.192;2023-02-12T04:18:39;10.30;54.90
40534;DHT22;26233;51.894;10.192;2023-02-12T04:21:12;10.20;54.80
40534;DHT22;26233;51.894;10.192;2023-02-12T04:23:52;10.20;54.70
40534;DHT22;26233;51.894;10.192;2023-02-12T04:26:30;10.20;54.70
40534;DHT22;26233;51.894;10.192;2023-02-12T04:29:15;10.30;54.80
40534;DHT22;26233;51.894;10.192;2023-02-12T04:31:48;10.20;54.80
40534;DHT22;26233;51.894;10.192;2023-02-12T04:34:23;10.20;54.80
40534;DHT22;26233;51.894;10.192;2023-02-12T04:36:56;10.20;54.90
40534;DHT22;26233;51.894;10.192;2023-02-12T04:39:27;10.20;54.90
40534;DHT22;26233;51.894;10.192;2023-02-12T04:41:57;10.20;54.80
40534;DHT22;26233;51.894;10.192;2023-02-12T04:44:27;10.20;54.90
40534;DHT22;26233;51.894;10.192;2023-02-12T04:46:56;10.20;54.90
40534;DHT22;26233;51.894;10.192;2023-02-12T04:49:25;10.30;55.00
40534;DHT22;26233;51.894;10.192;2023-02-12T04:51:53;10.20;54.80
40534;DHT22;26233;51.894;10.192;2023-02-12T04:54:20;10.30;55.00
40534;DHT22;26233;51.894;10.192;2023-02-12T04:56:49;10.30;55.00
40534;DHT22;26233;51.894;10.192;2023-02-12T04:59:16;10.30;55.20
40534;DHT22;26233;51.894;10.192;2023-02-12T05:01:44;10.30;55.00
40534;DHT22;26233;51.894;10.192;2023-02-12T05:04:12;10.30;55.00
40534;DHT22;26233;51.894;10.192;2023-02-12T05:06:42;10.30;54.90
40534;DHT22;26233;51.894;10.192;2023-02-12T05:09:14;10.30;54.90
40534;DHT22;26233;51.894;10.192;2023-02-12T05:11:42;10.30;54.90
40534;DHT22;26233;51.894;10.192;2023-02-12T05:14:09;10.30;55.40
40534;DHT22;26233;51.894;10.192;2023-02-12T05:16:36;10.20;54.70
40534;DHT22;26233;51.894;10.192;2023-02-12T05:19:03;10.20;54.70
40534;DHT22;26233;51.894;10.192;2023-02-12T05:21:30;10.20;54.70
40534;DHT22;26233;51.894;10.192;2023-02-12T05:24:00;10.20;54.70
40534;DHT22;26233;51.894;10.192;2023-02-12T05:26:27;10.20;54.80
40534;DHT22;26233;51.894;10.192;2023-02-12T05:28:54;10.20;54.80
40534;DHT22;26233;51.894;10.192;2023-02-12T05:31:22;10.10;54.80
40534;DHT22;26233;51.894;10.192;2023-02-12T05:33:49;10.10;54.80
40534;DHT22;26233;51.894;10.192;2023-02-12T05:36:18;10.10;54.80
40534;DHT22;26233;51.894;10.192;2023-02-12T05:38:46;10.10;54.90
40534;DHT22;26233;51.894;10.192;2023-02-12T05:41:16;10.10;54.90
40534;DHT22;26233;51.894;10.192;2023-02-12T05:43:45;10.10;55.00
40534;DHT22;26233;51.894;10.192;2023-02-12T05:46:12;10.10;55.00
40534;DHT22;26233;51.894;10.192;2023-02-12T05:48:39;10.10;55.10
40534;DHT22;26233;51.894;10.192;2023-02-12T05:51:08;10.20;55.10
40534;DHT22;26233;51.894;10.192;2023-02-12T05:53:37;10.10;55.00
40534;DHT22;26233;51.894;10.192;2023-02-12T05:56:11;10.20;55.00
40534;DHT22;26233;51.894;10.192;2023-02-12T05:58:42;10.10;55.00
40534;DHT22;26233;51.894;10.192;2023-02-12T06:01:12;10.10;55.00
40534;DHT22;26233;51.894;10.192;2023-02-12T06:03:40;10.10;55.00
40534;DHT22;26233;51.894;10.192;2023-02-12T06:06:08;10.20;55.10
40534;DHT22;26233;51.894;10.192;2023-02-12T06:08:36;10.10;55.00
40534;DHT22;26233;51.894;10.192;2023-02-12T06:11:05;10.10;55.00
40534;DHT22;26233;51.894;10.192;2023-02-12T06:13:33;10.10;55.00
40534;DHT22;26233;51.894;10.192;2023-02-12T06:16:02;10.20;55.10
40534;DHT22;26233;51.894;10.192;2023-02-12T06:18:29;10.20;55.10
40534;DHT22;26233;51.894;10.192;2023-02-12T06:20:56;10.20;55.10
40534;DHT22;26233;51.894;10.192;2023-02-12T06:23:23;10.20;55.00
40534;DHT22;26233;51.894;10.192;2023-02-12T06:25:54;10.20;55.00
40534;DHT22;26233;51.894;10.192;2023-02-12T06:28:22;10.20;55.00
40534;DHT22;26233;51.894;10.192;2023-02-12T06:30:49;10.20;55.00
40534;DHT22;26233;51.894;10.192;2023-02-12T06:33:17;10.20;55.00
40534;DHT22;26233;51.894;10.192;2023-02-12T06:35:44;10.20;55.00
40534;DHT22;26233;51.894;10.192;2023-02-12T06:38:11;10.20;55.00
40534;DHT22;26233;51.894;10.192;2023-02-12T06:40:38;10.20;54.90
40534;DHT22;26233;51.894;10.192;2023-02-12T06:43:06;10.10;54.80
40534;DHT22;26233;51.894;10.192;2023-02-12T06:45:33;10.10;54.80
40534;DHT22;26233;51.894;10.192;2023-02-12T06:48:00;10.10;54.80
40534;DHT22;26233;51.894;10.192;2023-02-12T06:50:29;10.10;54.90
40534;DHT22;26233;51.894;10.192;2023-02-12T06:52:57;10.10;55.50
40534;DHT22;26233;51.894;10.192;2023-02-12T06:55:25;10.10;55.00
40534;DHT22;26233;51.894;10.192;2023-02-12T06:57:52;10.10;55.00
40534;DHT22;26233;51.894;10.192;2023-02-12T07:00:21;10.10;55.10
40534;DHT22;26233;51.894;10.192;2023-02-12T07:02:52;10.10;55.00
40534;DHT22;26233;51.894;10.192;2023-02-12T07:05:20;10.10;55.10
40534;DHT22;26233;51.894;10.192;2023-02-12T07:07:48;10.10;55.10
40534;DHT22;26233;51.894;10.192;2023-02-12T07:10:16;10.10;55.10
40534;DHT22;26233;51.894;10.192;2023-02-12T07:12:44;10.10;55.10
40534;DHT22;26233;51.894;10.192;2023-02-12T07:15:11;10.10;55.10
40534;DHT22;26233;51.894;10.192;2023-02-12T07:17:39;10.10;55.10
40534;DHT22;26233;51.894;10.192;2023-02-12T07:20:07;10.10;55.10
40534;DHT22;26233;51.894;10.192;2023-02-12T07:22:35;10.20;55.20
40534;DHT22;26233;51.894;10.192;2023-02-12T07:25:04;10.20;55.20
40534;DHT22;26233;51.894;10.192;2023-02-12T07:27:33;10.20;55.20
40534;DHT22;26233;51.894;10.192;2023-02-12T07:30:02;10.20;55.10
40534;DHT22;26233;51.894;10.192;2023-02-12T07:32:31;10.20;55.20
40534;DHT22;26233;51.894;10.192;2023-02-12T07:34:58;10.20;55.10
40534;DHT22;26233;51.894;10.192;2023-02-12T07:37:25;10.20;55.10
40534;DHT22;26233;51.894;10.192;2023-02-12T07:39:52;10.20;55.20
40534;DHT22;26233;51.894;10.192;2023-02-12T07:42:20;10.20;55.20
40534;DHT22;26233;51.894;10.192;2023-02-12T07:44:47;10.20;55.30
40534;DHT22;26233;51.894;10.192;2023-02-12T07:47:15;10.20;55.30
40534;DHT22;26233;51.894;10.192;2023-02-12T07:49:42;10.30;55.50
40534;DHT22;26233;51.894;10.192;2023-02-12T07:52:09;10.30;55.40
40534;DHT22;26233;51.894;10.192;2023-02-12T07:54:36;10.30;55.40
40534;DHT22;26233;51.894;10.192;2023-02-12T07:57:03;10.40;55.50
40534;DHT22;26233;51.894;10.192;2023-02-12T07:59:32;10.40;55.50
40534;DHT22;26233;51.894;10.192;2023-02-12T08:01:59;10.50;55.50
40534;DHT22;26233;51.894;10.192;2023-02-12T08:04:26;10.40;55.40
40534;DHT22;26233;51.894;10.192;2023-02-12T08:06:54;10.50;55.50
40534;DHT22;26233;51.894;10.192;2023-02-12T08:09:24;10.50;55.50
40534;DHT22;26233;51.894;10.192;2023-02-12T08:11:52;10.50;55.40
40534;DHT22;26233;51.894;10.192;2023-02-12T08:14:20;10.50;55.20
40534;DHT22;26233;51.894;10.192;2023-02-12T08:16:48;10.50;55.10
40534;DHT22;26233;51.894;10.192;2023-02-12T08:19:16;10.50;55.10
40534;DHT22;26233;51.894;10.192;2023-02-12T08:21:44;10.50;55.00
40534;DHT22;26233;51.894;10.192;2023-02-12T08:24:11;10.50;55.00
40534;DHT22;26233;51.894;10.192;2023-02-12T08:26:39;10.50;55.10
40534;DHT22;26233;51.894;10.192;2023-02-12T08:29:08;10.40;55.00
40534;DHT22;26233;51.894;10.192;2023-02-12T08:31:38;10.40;55.00
40534;DHT22;26233;51.894;10.192;2023-02-12T08:34:15;10.40;55.10
40534;DHT22;26233;51.894;10.192;2023-02-12T08:36:44;10.40;55.20
40534;DHT22;26233;51.894;10.192;2023-02-12T08:39:12;10.40;55.20
40534;DHT22;26233;51.894;10.192;2023-02-12T08:41:41;10.40;55.80
40534;DHT22;26233;51.894;10.192;2023-02-12T08:44:09;10.40;55.20
40534;DHT22;26233;51.894;10.192;2023-02-12T08:46:38;10.50;55.20
40534;DHT22;26233;51.894;10.192;2023-02-12T08:49:10;10.50;55.30
40534;DHT22;26233;51.894;10.192;2023-02-12T08:51:41;10.50;55.20
40534;DHT22;26233;51.894;10.192;2023-02-12T08:54:11;10.40;55.10
40534;DHT22;26233;51.894;10.192;2023-02-12T08:56:39;10.40;55.20
40534;DHT22;26233;51.894;10.192;2023-02-12T08:59:08;10.40;55.20
40534;DHT22;26233;51.894;10.192;2023-02-12T09:01:37;10.50;55.40
40534;DHT22;26233;51.894;10.192;2023-02-12T09:04:06;10.50;55.30
40534;DHT22;26233;51.894;10.192;2023-02-12T09:06:35;10.50;55.30
40534;DHT22;26233;51.894;10.192;2023-02-12T09:09:03;10.50;55.30
40534;DHT22;26233;51.894;10.192;2023-02-12T09:11:33;10.50;55.40
40534;DHT22;26233;51.894;10.192;2023-02-12T09:14:02;10.60;55.50
40534;DHT22;26233;51.894;10.192;2023-02-12T09:16:32;10.60;55.50
40534;DHT22;26233;51.894;10.192;2023-02-12T09:18:59;10.60;55.50
40534;DHT22;26233;51.894;10.192;2023-02-12T09:21:28;10.70;55.60
40534;DHT22;26233;51.894;10.192;2023-02-12T09:23:55;10.60;55.40
40534;DHT22;26233;51.894;10.192;2023-02-12T09:26:23;10.70;56.10
40534;DHT22;26233;51.894;10.192;2023-02-12T09:28:52;10.70;55.40
40534;DHT22;26233;51.894;10.192;2023-02-12T09:31:21;10.70;55.40
40534;DHT22;26233;51.894;10.192;2023-02-12T09:33:51;10.80;55.50
40534;DHT22;26233;51.894;10.192;2023-02-12T09:36:18;10.80;55.40
40534;DHT22;26233;51.894;10.192;2023-02-12T09:38:47;10.70;55.20
40534;DHT22;26233;51.894;10.192;2023-02-12T09:44:28;10.80;55.30
40534;DHT22;26233;51.894;10.192;2023-02-12T09:47:01;10.80;55.30
40534;DHT22;26233;51.894;10.192;2023-02-12T09:49:47;10.80;55.40
40534;DHT22;26233;51.894;10.192;2023-02-12T09:52:23;10.80;55.40
40534;DHT22;26233;51.894;10.192;2023-02-12T09:54:54;10.80;55.30
40534;DHT22;26233;51.894;10.192;2023-02-12T09:57:25;10.80;55.40
40534;DHT22;26233;51.894;10.192;2023-02-12T09:59:57;10.80;55.40
40534;DHT22;26233;51.894;10.192;2023-02-12T10:02:27;10.90;55.50
40534;DHT22;26233;51.894;10.192;2023-02-12T10:04:54;10.90;55.50
40534;DHT22;26233;51.894;10.192;2023-02-12T10:07:32;10.80;55.50
40534;DHT22;26233;51.894;10.192;2023-02-12T10:10:23;11.00;55.60
40534;DHT22;26233;51.894;10.192;2023-02-12T10:13:03;11.00;55.60
40534;DHT22;26233;51.894;10.192;2023-02-12T10:15:37;11.00;55.50
40534;DHT22;26233;51.894;10.192;2023-02-12T10:18:32;11.00;55.40
40534;DHT22;26233;51.894;10.192;2023-02-12T10:21:19;11.10;55.30
40534;DHT22;26233;51.894;10.192;2023-02-12T10:24:04;11.10;55.30
40534;DHT22;26233;51.894;10.192;2023-02-12T10:26:43;11.10;55.30
40534;DHT22;26233;51.894;10.192;2023-02-12T10:29:16;11.10;55.40
40534;DHT22;26233;51.894;10.192;2023-02-12T10:31:47;11.10;55.40
40534;DHT22;26233;51.894;10.192;2023-02-12T10:34:19;11.10;55.50
40534;DHT22;26233;51.894;10.192;2023-02-12T10:36:48;11.20;55.50
40534;DHT22;26233;51.894;10.192;2023-02-12T10:39:20;11.20;55.60
40534;DHT22;26233;51.894;10.192;2023-02-12T10:41:54;11.20;55.50
40534;DHT22;26233;51.894;10.192;2023-02-12T10:44:23;11.20;55.30
40534;DHT22;26233;51.894;10.192;2023-02-12T10:46:50;11.20;55.20
40534;DHT22;26233;51.894;10.192;2023-02-12T10:49:19;11.20;55.20
40534;DHT22;26233;51.894;10.192;2023-02-12T10:52:08;11.30;55.20
40534;DHT22;26233;51.894;10.192;2023-02-12T10:54:41;11.20;55.40
40534;DHT22;26233;51.894;10.192;2023-02-12T10:57:17;11.20;55.10
40534;DHT22;26233;51.894;10.192;2023-02-12T10:59:53;11.30;55.10
40534;DHT22;26233;51.894;10.192;2023-02-12T11:02:25;11.30;55.10
40534;DHT22;26233;51.894;10.192;2023-02-12T11:04:55;11.20;55.00
40534;DHT22;26233;51.894;10.192;2023-02-12T11:07:24;11.20;55.00
40534;DHT22;26233;51.894;10.192;2023-02-12T11:09:54;11.20;55.10
40534;DHT22;26233;51.894;10.192;2023-02-12T11:12:33;11.20;55.10
40534;DHT22;26233;51.894;10.192;2023-02-12T11:15:05;11.30;55.20
40534;DHT22;26233;51.894;10.192;2023-02-12T11:17:41;11.20;55.20
40534;DHT22;26233;51.894;10.192;2023-02-12T11:20:21;11.20;55.30
40534;DHT22;26233;51.894;10.192;2023-02-12T11:22:54;11.30;55.40
40534;DHT22;26233;51.894;10.192;2023-02-12T11:25:24;11.30;55.50
40534;DHT22;26233;51.894;10.192;2023-02-12T11:28:03;11.30;56.20
40534;DHT22;26233;51.894;10.192;2023-02-12T11:30:53;11.40;55.60
40534;DHT22;26233;51.894;10.192;2023-02-12T11:33:25;11.40;55.70
40534;DHT22;26233;51.894;10.192;2023-02-12T11:35:56;11.40;55.50
40534;DHT22;26233;51.894;10.192;2023-02-12T11:38:38;11.50;55.50
40534;DHT22;26233;51.894;10.192;2023-02-12T11:41:24;11.50;55.20
40534;DHT22;26233;51.894;10.192;2023-02-12T11:43:55;11.60;55.30
40534;DHT22;26233;51.894;10.192;2023-02-12T11:46:24;11.60;55.50
40534;DHT22;26233;51.894;10.192;2023-02-12T11:48:54;11.70;55.60
40534;DHT22;26233;51.894;10.192;2023-02-12T11:51:25;11.70;55.50
40534;DHT22;26233;51.894;10.192;2023-02-12T11:53:55;11.80;55.50
40534;DHT22;26233;51.894;10.192;2023-02-12T11:56:23;11.80;55.30
40534;DHT22;26233;51.894;10.192;2023-02-12T11:58:51;11.80;55.10
40534;DHT22;26233;51.894;10.192;2023-02-12T12:01:22;11.80;55.50
40534;DHT22;26233;51.894;10.192;2023-02-12T12:03:58;11.90;54.90
40534;DHT22;26233;51.894;10.192;2023-02-12T12:06:34;11.90;54.80
40534;DHT22;26233;51.894;10.192;2023-02-12T12:09:06;11.80;54.70
40534;DHT22;26233;51.894;10.192;2023-02-12T12:11:43;11.80;54.80
40534;DHT22;26233;51.894;10.192;2023-02-12T12:14:25;11.80;54.80
40534;DHT22;26233;51.894;10.192;2023-02-12T12:17:01;11.80;54.80
40534;DHT22;26233;51.894;10.192;2023-02-12T12:19:51;11.80;54.70
40534;DHT22;26233;51.894;10.192;2023-02-12T12:22:41;11.80;54.70
40534;DHT22;26233;51.894;10.192;2023-02-12T12:25:19;11.80;54.60
40534;DHT22;26233;51.894;10.192;2023-02-12T12:27:57;11.80;54.80
40534;DHT22;26233;51.894;10.192;2023-02-12T12:30:44;11.90;54.80
40534;DHT22;26233;51.894;10.192;2023-02-12T12:33:23;11.80;54.50
40534;DHT22;26233;51.894;10.192;2023-02-12T12:36:05;11.80;54.50
40534;DHT22;26233;51.894;10.192;2023-02-12T12:38:45;11.80;54.50
40534;DHT22;26233;51.894;10.192;2023-02-12T12:41:24;11.80;54.50
40534;DHT22;26233;51.894;10.192;2023-02-12T12:44:03;11.80;54.60
40534;DHT22;26233;51.894;10.192;2023-02-12T12:46:51;11.80;54.50
40534;DHT22;26233;51.894;10.192;2023-02-12T12:49:38;11.80;54.50
40534;DHT22;26233;51.894;10.192;2023-02-12T12:52:41;11.80;54.70
40534;DHT22;26233;51.894;10.192;2023-02-12T12:55:43;11.80;54.60
40534;DHT22;26233;51.894;10.192;2023-02-12T12:58:28;11.80;54.60
40534;DHT22;26233;51.894;10.192;2023-02-12T13:01:21;11.80;54.60
40534;DHT22;26233;51.894;10.192;2023-02-12T13:04:29;11.80;54.40
40534;DHT22;26233;51.894;10.192;2023-02-12T13:07:17;11.80;54.20
40534;DHT22;26233;51.894;10.192;2023-02-12T13:10:07;11.70;54.10
40534;DHT22;26233;51.894;10.192;2023-02-12T13:12:51;11.70;54.10
40534;DHT22;26233;51.894;10.192;2023-02-12T13:15:31;11.60;54.00
40534;DHT22;26233;51.894;10.192;2023-02-12T13:18:04;11.60;54.10
40534;DHT22;26233;51.894;10.192;2023-02-12T13:20:48;11.60;54.20
40534;DHT22;26233;51.894;10.192;2023-02-12T13:23:26;11.60;54.20
40534;DHT22;26233;51.894;10.192;2023-02-12T13:26:05;11.60;54.30
40534;DHT22;26233;51.894;10.192;2023-02-12T13:28:38;11.50;54.30
40534;DHT22;26233;51.894;10.192;2023-02-12T13:31:09;11.50;54.30
40534;DHT22;26233;51.894;10.192;2023-02-12T13:33:42;11.50;54.30
40534;DHT22;26233;51.894;10.192;2023-02-12T13:36:13;11.50;54.30
40534;DHT22;26233;51.894;10.192;2023-02-12T13:38:44;11.50;54.40
40534;DHT22;26233;51.894;10.192;2023-02-12T13:41:14;11.50;54.40
40534;DHT22;26233;51.894;10.192;2023-02-12T13:43:52;11.50;54.40
40534;DHT22;26233;51.894;10.192;2023-02-12T13:46:30;11.50;54.50
40534;DHT22;26233;51.894;10.192;2023-02-12T13:49:13;11.50;54.50
40534;DHT22;26233;51.894;10.192;2023-02-12T13:51:49;11.50;54.50
40534;DHT22;26233;51.894;10.192;2023-02-12T13:54:51;11.50;54.50
40534;DHT22;26233;51.894;10.192;2023-02-12T13:57:22;11.50;54.40
40534;DHT22;26233;51.894;10.192;2023-02-12T13:59:50;11.50;54.60
40534;DHT22;26233;51.894;10.192;2023-02-12T14:05:19;11.50;54.40
40534;DHT22;26233;51.894;10.192;2023-02-12T14:07:53;11.60;54.50
40534;DHT22;26233;51.894;10.192;2023-02-12T14:10:24;11.60;54.40
40534;DHT22;26233;51.894;10.192;2023-02-12T14:12:56;11.50;54.30
40534;DHT22;26233;51.894;10.192;2023-02-12T14:15:33;11.60;54.30
40534;DHT22;26233;51.894;10.192;2023-02-12T14:18:22;11.50;54.20
40534;DHT22;26233;51.894;10.192;2023-02-12T14:27:26;11.50;54.20
40534;DHT22;26233;51.894;10.192;2023-02-12T14:30:27;11.50;54.30
40534;DHT22;26233;51.894;10.192;2023-02-12T14:33:09;11.50;54.10
40534;DHT22;26233;51.894;10.192;2023-02-12T14:35:48;11.50;54.10
40534;DHT22;26233;51.894;10.192;2023-02-12T14:38:57;11.40;54.00
40534;DHT22;26233;51.894;10.192;2023-02-12T14:41:35;11.40;53.80
40534;DHT22;26233;51.894;10.192;2023-02-12T14:44:46;11.30;53.70
40534;DHT22;26233;51.894;10.192;2023-02-12T14:50:21;11.20;53.70
40534;DHT22;26233;51.894;10.192;2023-02-12T14:52:53;11.20;53.90
40534;DHT22;26233;51.894;10.192;2023-02-12T14:55:27;11.20;53.90
40534;DHT22;26233;51.894;10.192;2023-02-12T14:58:02;11.20;53.80
40534;DHT22;26233;51.894;10.192;2023-02-12T15:00:34;11.20;53.80
40534;DHT22;26233;51.894;10.192;2023-02-12T15:03:15;11.20;53.80
40534;DHT22;26233;51.894;10.192;2023-02-12T15:05:49;11.20;54.40
40534;DHT22;26233;51.894;10.192;2023-02-12T15:08:27;11.10;53.70
40534;DHT22;26233;51.894;10.192;2023-02-12T15:11:04;11.10;53.70
40534;DHT22;26233;51.894;10.192;2023-02-12T15:13:45;11.10;53.70
40534;DHT22;26233;51.894;10.192;2023-02-12T15:16:21;11.10;53.70
40534;DHT22;26233;51.894;10.192;2023-02-12T15:18:56;11.10;53.70
40534;DHT22;26233;51.894;10.192;2023-02-12T15:21:27;11.00;53.60
40534;DHT22;26233;51.894;10.192;2023-02-12T15:24:00;11.00;53.70
40534;DHT22;26233;51.894;10.192;2023-02-12T15:26:31;11.00;53.70
40534;DHT22;26233;51.894;10.192;2023-02-12T15:29:01;11.00;53.80
40534;DHT22;26233;51.894;10.192;2023-02-12T15:31:32;11.00;53.80
40534;DHT22;26233;51.894;10.192;2023-02-12T15:34:02;11.10;53.90
40534;DHT22;26233;51.894;10.192;2023-02-12T15:36:31;11.10;53.80
40534;DHT22;26233;51.894;10.192;2023-02-12T15:39:02;11.10;53.80
40534;DHT22;26233;51.894;10.192;2023-02-12T15:41:37;11.10;54.30
40534;DHT22;26233;51.894;10.192;2023-02-12T15:44:26;11.10;53.60
40534;DHT22;26233;51.894;10.192;2023-02-12T15:47:02;11.10;53.50
40534;DHT22;26233;51.894;10.192;2023-02-12T15:49:37;11.10;53.60
40534;DHT22;26233;51.894;10.192;2023-02-12T15:52:07;11.10;53.60
40534;DHT22;26233;51.894;10.192;2023-02-12T15:54:37;11.10;53.50
40534;DHT22;26233;51.894;10.192;2023-02-12T15:57:09;11.10;53.50
40534;DHT22;26233;51.894;10.192;2023-02-12T15:59:41;11.10;53.50
40534;DHT22;26233;51.894;10.192;2023-02-12T16:02:18;11.10;53.50
40534;DHT22;26233;51.894;10.192;2023-02-12T16:04:46;11.10;53.40